Terminal Aerodrome Forecast
Issued by NWS Mt. Holly, NJ

Home | Current Version | Previous Version | Text Only | Print | Product List | Glossary On
Versions: 1 2 3 4 5 6 7 8 9 10 11 12 13 14 15 16 17 18 19 20 21 22
000
FTUS41 KPHI 191129
TAFPHL
TAF
KPHL 191129Z 1912/2018 07012G18KT P6SM SCT250
     FM192200 08012KT P6SM SCT025 BKN120
     FM200200 08014KT P6SM OVC015
     FM200600 08016G24KT 4SM -RA BR OVC008 WS020/14045KT
     FM201400 12010G18KT 6SM -SHRA BR OVC012=

USA.gov is the U.S. government's official web portal to all federal, state and local government web resources and services.